Drummond Island, MI (49726)

12:35 AM EST on February 25, 2017 (GMT -0500)
Potagannissing Bay Front | | Change Station
Active Advisory: Winter Weather Advisory

Elev 587 ft 46.06 °N, 83.67 °W | Updated 9 seconds ago

Overcast
Overcast
27.4 °F
Feels Like 20 °F
N
7.0
Wind Variable Wind from ENE
Gusts 12.0 mph

Today
High -- | Low -- °F
--% Chance of Precip.
Yesterday
High -- | Low -- °F
Precip. -- in
Pressure 29.44 in
Visibility 3.0 miles
Clouds Overcast 600 ft
Windchill 20 °F
Dew Point 27 °F
Humidity 97%
Rainfall 0.00 in
Snow Depth Not available.
7:20 AM 6:16 PM
Waning Crescent, 2% visible
METAR KDRM 250515Z AUTO 02005KT 3SM BR OVC006 M02/M03 A2944 RMK AO2 T10251026
Pressure 29.44 in
Visibility 3.0 miles
Clouds Overcast 600 ft
Windchill 20 °F
Dew Point 27 °F
Humidity 97%
Rainfall 0.00 in
Snow Depth Not available.
7:20 AM 6:16 PM
Waning Crescent, 2% visible
METAR KDRM 250515Z AUTO 02005KT 3SM BR OVC006 M02/M03 A2944 RMK AO2 T10251026

Get Your Daily Forecast Email!

Thanks for signing up!

Be on the lookout for a verification email in your inbox.

You'll start receiving the daily forecast at 8 AM.

×

10-Day Weather Forecast

Almanac

Astronomy

Feb. 25, 2017 Rise Set
Actual Time
Civil Twilight
Nautical Twilight
Astronomical Twilight
Moon
Length of Visible Light
Length of Day
Tomorrow will be .
, % of the Moon is Illuminated

Today's Extremes

State Highs State Lows

Community

WunderPhotos

Upload Photos

1,962,540 photos uploaded!

WunderBlog® & News

Nearby

Air Quality

  Air Quality AQ Index Pollutant
Not available.

Snow Depth

Station Depth Elevation

Earthquake Activity

City Distance Mag. Time & Date
Minimum magnitude displayed is 2.5.

Coastal Water Temperatures

Place Temperature

Stations

Nearby Weather Stations

Station Location Temp. Windchill Dew Point Humidity Wind Precip. Elev Updated Type
                   

Watches & Warnings

Winter Weather Advisory
Issued: 10:13 PM EST Feb. 24, 2017 – National Weather Service

... Winter Weather Advisory remains in effect until 1 am EST
Saturday...

* periodic light freezing rain or freezing drizzle will impact the
area through midnight, and possibly through much of the
overnight hours as well.

* Ice accumulations of up to 1/10 of an inch are expected.

* Look for reduced visibilities at times.

* Travel will be hazardous.

Precautionary/preparedness actions...

A Winter Weather Advisory means that periods of snow... sleet or
freezing rain will cause travel difficulties. Be prepared for
slippery roads and limited visibilities... and use caution while
driving. For the latest Road conditions... go to the mdot website
at Michigan.Gov.